Vitim, Russia
Current Conditions -  °F | °C
As of 3:30 PM on Tuesday 21 Oct 2014 (Local Time) from UIBB Reporting Station
Broken Clouds Broken Clouds  
Wind Chill: 23°   Ceiling: 10000
Heat Index: 32°   Visibility: 6mi
Dew Point: 23°   Wind: 11mph
Humidity: 69%   Direction: 140°SE
Pressure: 29.71"   Gusts: NA
Location:  59.45°N, 112.56°E
Report Text: UIBB 210630Z 14005MPS 9999 BKN100 00/M05 Q1006 NOSIG RMKQFE712/0949 30CLRD60
Loading
Personal Weather Stations






























Interactive Weather Map
Tropical Storm Tracking
New forecast layout! Learn more

10-Day Weather Forecast

Advertisements
Track Severe Weather on mobile